Time;durP1;ratioP1;P1;durP2;ratioP2;P2;SDS_P1;SDS_P2;PMS_P1;PMS_P2;Temp;Humidity;BMP_temperature;BMP_pressure;BME280_temperature;BME280_humidity;BME280_pressure;Samples;Min_cycle;Max_cycle;Signal;HPM_P1;HPM_P2
2023/07/27 00:01:28;;;;;;;2.35;1.50;;;18.10;99.90;;;;;;5105053;27;20110;-81
2023/07/27 00:03:54;;;;;;;3.25;1.70;;;18.10;99.90;;;;;;5136354;27;20045;-81
2023/07/27 00:06:21;;;;;;;2.92;1.83;;;18.10;99.90;;;;;;5116710;28;20019;-82
2023/07/27 00:08:46;;;;;;;6.03;1.90;;;18.00;99.90;;;;;;5107489;27;20015;-83
2023/07/27 00:11:12;;;;;;;2.58;2.03;;;18.10;99.90;;;;;;5104027;28;20122;-83
2023/07/27 00:13:38;;;;;;;4.95;1.70;;;18.10;99.90;;;;;;5098237;28;20039;-83
2023/07/27 00:16:04;;;;;;;4.63;1.80;;;18.10;99.90;;;;;;5102255;27;20049;-81
2023/07/27 00:18:30;;;;;;;6.70;2.00;;;18.00;99.90;;;;;;5131489;27;20127;-81
2023/07/27 00:20:55;;;;;;;6.53;1.88;;;18.00;99.90;;;;;;5112500;27;20042;-82
2023/07/27 00:23:21;;;;;;;2.47;1.70;;;18.00;99.90;;;;;;5111302;27;20023;-83
2023/07/27 00:25:47;;;;;;;2.92;1.70;;;18.00;99.90;;;;;;5117622;27;20027;-82
2023/07/27 00:28:13;;;;;;;2.83;1.80;;;18.00;99.90;;;;;;5118377;27;20054;-81
2023/07/27 00:30:38;;;;;;;5.32;1.70;;;18.00;99.90;;;;;;5118416;27;20019;-83
2023/07/27 00:33:04;;;;;;;4.18;1.80;;;18.00;99.90;;;;;;5117798;27;20039;-81
2023/07/27 00:35:30;;;;;;;6.78;1.85;;;18.00;99.90;;;;;;5136871;27;20055;-83
2023/07/27 00:37:55;;;;;;;3.58;1.67;;;18.10;99.90;;;;;;5118490;27;20025;-83
2023/07/27 00:40:21;;;;;;;3.83;1.80;;;18.00;99.90;;;;;;5117575;27;20381;-82
2023/07/27 00:42:47;;;;;;;3.35;1.98;;;18.00;99.90;;;;;;5100778;27;20441;-81
2023/07/27 00:45:13;;;;;;;4.22;1.75;;;18.00;99.90;;;;;;5136684;27;20019;-81
2023/07/27 00:47:39;;;;;;;3.08;1.92;;;17.90;99.90;;;;;;5136072;27;20020;-82
2023/07/27 00:50:05;;;;;;;7.20;2.30;;;17.90;99.90;;;;;;5118115;27;20019;-81
2023/07/27 00:52:31;;;;;;;4.80;2.30;;;17.90;99.90;;;;;;5118171;27;20023;-81
2023/07/27 00:54:59;;;;;;;5.05;2.20;;;17.90;99.90;;;;;;5112353;28;20452;-82
2023/07/27 00:57:25;;;;;;;5.95;2.25;;;17.90;99.90;;;;;;5100116;27;20027;-81
2023/07/27 00:59:51;;;;;;;5.13;2.28;;;17.90;99.90;;;;;;5118033;27;20468;-81
2023/07/27 01:02:17;;;;;;;3.58;2.00;;;17.90;99.90;;;;;;5117550;27;20020;-80
2023/07/27 01:04:43;;;;;;;3.45;2.28;;;17.90;99.90;;;;;;5119291;27;20030;-80
2023/07/27 01:07:09;;;;;;;4.57;1.85;;;17.90;99.90;;;;;;5097155;28;20034;-84
2023/07/27 01:09:35;;;;;;;3.58;2.33;;;17.90;99.90;;;;;;5097321;28;20365;-82
2023/07/27 01:12:10;;;;;;;4.63;1.98;;;17.90;99.90;;;;;;5105646;27;20023;-82
2023/07/27 01:14:50;;;;;;;2.47;1.92;;;17.90;99.90;;;;;;5134828;27;20047;-83
2023/07/27 01:17:33;;;;;;;4.72;1.88;;;17.90;99.90;;;;;;5135097;27;20020;-81
2023/07/27 01:20:20;;;;;;;6.28;2.03;;;17.90;99.90;;;;;;5114961;27;20388;-81
2023/07/27 01:22:57;;;;;;;3.88;1.83;;;17.90;99.90;;;;;;5134874;27;20076;-83
2023/07/27 01:25:55;;;;;;;2.58;1.50;;;17.80;99.90;;;;;;5117385;27;20019;-82
2023/07/27 01:36:14;;;;;;;4.65;1.55;;;17.70;99.90;;;;;;5090091;27;20740;-84
2023/07/27 01:38:44;;;;;;;4.85;1.67;;;17.60;99.90;;;;;;5089436;28;20024;-83
2023/07/27 01:41:11;;;;;;;2.42;1.30;;;17.60;99.90;;;;;;5088935;28;20056;-85
2023/07/27 01:43:39;;;;;;;3.35;1.60;;;17.50;99.90;;;;;;5089175;28;20036;-83
2023/07/27 01:46:07;;;;;;;5.47;1.38;;;17.50;99.90;;;;;;5090099;28;20082;-83
2023/07/27 01:48:36;;;;;;;2.28;1.23;;;17.50;99.90;;;;;;5090423;28;20078;-83
2023/07/27 01:51:03;;;;;;;4.60;1.65;;;17.50;99.90;;;;;;5088849;28;20386;-83
2023/07/27 01:53:31;;;;;;;2.60;1.50;;;17.50;99.90;;;;;;5089006;28;20043;-85
2023/07/27 01:55:58;;;;;;;3.95;1.73;;;17.50;99.90;;;;;;5088838;28;20119;-83
2023/07/27 01:58:26;;;;;;;2.25;1.20;;;17.50;99.90;;;;;;5088989;28;20027;-84
2023/07/27 02:00:52;;;;;;;1.90;1.00;;;17.40;99.90;;;;;;5088135;28;20047;-82
2023/07/27 02:03:18;;;;;;;4.05;1.20;;;17.40;99.90;;;;;;5088825;28;20454;-83
2023/07/27 02:05:44;;;;;;;4.55;1.30;;;17.40;99.90;;;;;;5088968;28;20030;-82
2023/07/27 02:08:10;;;;;;;3.22;1.40;;;17.40;99.90;;;;;;5090075;28;20027;-84
2023/07/27 02:10:39;;;;;;;1.73;0.90;;;17.40;99.90;;;;;;5089595;28;20024;-83
2023/07/27 02:13:13;;;;;;;2.95;1.17;;;17.40;99.90;;;;;;5088668;28;20408;-84
2023/07/27 02:15:45;;;;;;;3.20;1.13;;;17.50;99.90;;;;;;5088704;28;20427;-84
2023/07/27 02:18:18;;;;;;;2.00;1.17;;;17.40;99.90;;;;;;5090391;28;20103;-83
2023/07/27 02:20:44;;;;;;;3.50;1.30;;;17.50;99.90;;;;;;5089208;28;20069;-83
2023/07/27 02:23:11;;;;;;;1.80;0.88;;;17.50;99.90;;;;;;5089211;28;20024;-83
2023/07/27 02:25:37;;;;;;;5.88;1.20;;;17.50;99.90;;;;;;5088893;28;20086;-83
2023/07/27 02:28:03;;;;;;;2.35;1.08;;;17.50;99.90;;;;;;5089150;28;20059;-83
2023/07/27 02:30:29;;;;;;;2.30;1.00;;;17.50;99.90;;;;;;5089111;28;20060;-84
2023/07/27 02:32:55;;;;;;;1.00;0.80;;;17.50;99.90;;;;;;5088590;28;20035;-83
2023/07/27 02:35:21;;;;;;;4.95;1.00;;;17.40;99.90;;;;;;5088665;28;20051;-83
2023/07/27 02:37:46;;;;;;;5.68;1.38;;;17.40;99.90;;;;;;5089061;28;20028;-83
2023/07/27 02:40:12;;;;;;;2.72;1.00;;;17.40;99.90;;;;;;5088595;28;20028;-84
2023/07/27 02:42:38;;;;;;;4.75;1.08;;;17.30;99.90;;;;;;5090150;28;20107;-84
2023/07/27 02:45:04;;;;;;;3.40;1.00;;;17.40;99.90;;;;;;5088493;28;20443;-85
2023/07/27 02:47:30;;;;;;;1.25;0.80;;;17.30;99.90;;;;;;5074319;28;20446;-85
2023/07/27 02:49:56;;;;;;;1.63;1.10;;;17.40;99.90;;;;;;5074572;28;20026;-82
2023/07/27 02:52:21;;;;;;;2.95;1.25;;;17.30;99.90;;;;;;5074170;28;20347;-82
2023/07/27 02:54:47;;;;;;;2.28;1.02;;;17.30;99.90;;;;;;5074483;28;20035;-82
2023/07/27 02:57:13;;;;;;;2.38;0.85;;;17.30;99.90;;;;;;5075494;28;20505;-83
2023/07/27 02:59:39;;;;;;;1.13;0.80;;;17.20;99.90;;;;;;5074039;28;20036;-83
2023/07/27 03:02:05;;;;;;;8.90;1.17;;;17.30;99.90;;;;;;5074243;28;20028;-83
2023/07/27 03:04:30;;;;;;;1.80;1.10;;;17.20;99.90;;;;;;5075560;28;20078;-83
2023/07/27 03:06:56;;;;;;;2.38;0.90;;;17.20;99.90;;;;;;5074069;28;20024;-84
2023/07/27 03:09:22;;;;;;;1.27;0.85;;;17.10;99.90;;;;;;5073572;28;20098;-83
2023/07/27 03:11:49;;;;;;;1.95;1.10;;;17.10;99.90;;;;;;5075372;28;20016;-83
2023/07/27 03:14:15;;;;;;;2.97;1.20;;;17.10;99.90;;;;;;5073678;28;20024;-84
2023/07/27 03:16:41;;;;;;;2.75;1.70;;;17.00;99.90;;;;;;5075017;28;20090;-83
2023/07/27 03:19:06;;;;;;;5.25;1.13;;;17.00;99.90;;;;;;5074197;28;20047;-84
2023/07/27 03:21:32;;;;;;;2.80;1.15;;;16.90;99.90;;;;;;5073571;28;20042;-82
2023/07/27 03:23:58;;;;;;;3.38;1.13;;;16.90;99.90;;;;;;5074561;28;20040;-83
2023/07/27 03:26:24;;;;;;;3.78;1.30;;;16.90;99.90;;;;;;5073695;28;20480;-84
2023/07/27 03:28:50;;;;;;;2.85;1.30;;;16.80;99.90;;;;;;5073543;28;20032;-84
2023/07/27 03:31:28;;;;;;;4.30;1.50;;;16.80;99.90;;;;;;5073855;28;20032;-83
2023/07/27 03:33:54;;;;;;;4.15;1.30;;;16.60;99.90;;;;;;5073132;28;20064;-82
2023/07/27 03:36:20;;;;;;;4.25;1.33;;;16.60;99.90;;;;;;5074506;28;20051;-83
2023/07/27 03:38:47;;;;;;;2.40;1.42;;;16.50;99.90;;;;;;5073822;28;20104;-83
2023/07/27 03:41:13;;;;;;;2.40;1.52;;;16.50;99.90;;;;;;5072870;28;20056;-82
2023/07/27 03:43:39;;;;;;;3.45;1.27;;;16.50;99.90;;;;;;5073226;28;20025;-82
2023/07/27 03:46:04;;;;;;;3.35;1.88;;;16.40;99.90;;;;;;5073326;28;20352;-83
2023/07/27 03:48:30;;;;;;;7.03;1.42;;;16.40;99.90;;;;;;5074352;28;20447;-83
2023/07/27 03:51:00;;;;;;;6.85;1.77;;;16.30;99.90;;;;;;5074280;28;20044;-83
2023/07/27 03:53:27;;;;;;;3.03;1.38;;;16.20;99.90;;;;;;5072926;28;20017;-82
2023/07/27 03:55:52;;;;;;;3.22;1.40;;;16.20;99.90;;;;;;5073628;28;20032;-83
2023/07/27 03:58:18;;;;;;;3.47;1.70;;;16.20;99.90;;;;;;5072678;28;20078;-83
2023/07/27 04:00:44;;;;;;;5.75;1.38;;;16.20;99.90;;;;;;5072912;28;20028;-86
2023/07/27 04:03:10;;;;;;;3.72;1.48;;;16.00;99.90;;;;;;5072801;28;20512;-85
2023/07/27 04:05:35;;;;;;;2.25;1.58;;;16.10;99.90;;;;;;5073313;28;20035;-83
2023/07/27 04:08:01;;;;;;;9.38;1.80;;;16.10;99.90;;;;;;5072762;28;20061;-84
2023/07/27 04:10:31;;;;;;;3.90;1.98;;;16.10;99.90;;;;;;5072742;28;20158;-83
2023/07/27 04:12:58;;;;;;;1.98;1.52;;;16.10;99.90;;;;;;5072881;28;20078;-83
2023/07/27 04:15:24;;;;;;;3.22;1.58;;;16.10;99.90;;;;;;5072384;28;20125;-83
2023/07/27 04:17:50;;;;;;;5.68;1.63;;;16.10;99.90;;;;;;5072717;28;20467;-84
2023/07/27 04:20:16;;;;;;;4.95;1.95;;;16.20;99.90;;;;;;5074056;28;20382;-83
2023/07/27 04:22:42;;;;;;;4.75;1.60;;;16.20;99.90;;;;;;5072758;28;20070;-81
2023/07/27 04:25:08;;;;;;;4.13;1.70;;;16.20;99.90;;;;;;5071686;28;20025;-82
2023/07/27 04:27:33;;;;;;;5.20;1.58;;;16.30;99.90;;;;;;5071812;28;20115;-82
2023/07/27 04:29:59;;;;;;;4.65;1.73;;;16.40;99.90;;;;;;5072762;28;20546;-83
2023/07/27 04:32:25;;;;;;;9.15;2.90;;;16.40;99.90;;;;;;5073162;28;20112;-82
2023/07/27 04:34:51;;;;;;;4.18;2.00;;;16.50;99.90;;;;;;5072421;28;20052;-84
2023/07/27 04:37:17;;;;;;;4.28;1.52;;;16.50;99.90;;;;;;5074408;28;20025;-83
2023/07/27 04:39:43;;;;;;;2.90;1.58;;;16.50;99.90;;;;;;5073177;28;20031;-82
2023/07/27 04:42:08;;;;;;;2.65;1.50;;;16.50;99.90;;;;;;5072854;28;20021;-83
2023/07/27 04:44:34;;;;;;;2.55;1.48;;;16.50;99.90;;;;;;5073334;28;20055;-82
2023/07/27 04:47:00;;;;;;;3.13;1.42;;;16.60;99.90;;;;;;5072666;28;20335;-83
2023/07/27 04:49:25;;;;;;;4.03;1.40;;;16.70;99.90;;;;;;5073627;28;20355;-82
2023/07/27 04:51:51;;;;;;;3.92;1.38;;;16.70;99.90;;;;;;5072722;28;20359;-83
2023/07/27 04:54:17;;;;;;;2.35;1.50;;;16.70;99.90;;;;;;5072442;28;20470;-83
2023/07/27 04:56:43;;;;;;;1.92;1.20;;;16.60;99.90;;;;;;5073567;28;20141;-83
2023/07/27 05:00:06;;;;;;;2.30;1.30;;;16.70;99.90;;;;;;5087764;28;20382;-84
2023/07/27 05:02:32;;;;;;;5.40;1.30;;;16.70;99.90;;;;;;5089373;28;20089;-83
2023/07/27 05:04:57;;;;;;;10.18;1.58;;;16.80;99.90;;;;;;5089986;28;20036;-83
2023/07/27 05:07:23;;;;;;;4.78;1.30;;;16.90;99.90;;;;;;5090024;28;20032;-83
2023/07/27 05:09:49;;;;;;;4.60;1.15;;;16.90;99.90;;;;;;5089587;28;20036;-84
2023/07/27 05:12:15;;;;;;;3.70;1.00;;;16.90;99.90;;;;;;5089610;28;20577;-84
2023/07/27 05:14:40;;;;;;;2.15;1.00;;;17.00;99.90;;;;;;5089869;28;20051;-84
2023/07/27 05:17:06;;;;;;;5.55;1.10;;;17.00;99.90;;;;;;5089443;28;20178;-84
2023/07/27 05:19:32;;;;;;;5.40;1.23;;;17.00;99.90;;;;;;5084785;28;20028;-82
2023/07/27 05:21:58;;;;;;;4.72;1.20;;;17.10;99.90;;;;;;5082314;28;20115;-83
2023/07/27 05:24:24;;;;;;;2.95;1.20;;;17.20;99.90;;;;;;5080827;28;20053;-84
2023/07/27 05:26:50;;;;;;;4.72;1.13;;;17.20;99.90;;;;;;5076105;28;20060;-83
2023/07/27 05:29:16;;;;;;;3.30;1.00;;;17.30;99.90;;;;;;5089586;28;20056;-83
2023/07/27 05:31:41;;;;;;;2.10;0.85;;;17.30;99.90;;;;;;5089177;28;20021;-84
2023/07/27 05:34:08;;;;;;;2.55;1.00;;;17.40;99.90;;;;;;5088839;28;20028;-83
2023/07/27 05:36:34;;;;;;;3.00;0.98;;;17.40;99.90;;;;;;5087049;28;20070;-83
2023/07/27 05:39:00;;;;;;;4.65;1.10;;;17.40;99.90;;;;;;5087924;28;20067;-83
2023/07/27 05:41:25;;;;;;;2.38;1.00;;;17.50;99.90;;;;;;5089007;28;20509;-83
2023/07/27 05:43:51;;;;;;;3.08;0.82;;;17.50;99.90;;;;;;5088798;28;20432;-82
2023/07/27 05:46:17;;;;;;;2.60;0.70;;;17.50;99.90;;;;;;5089209;28;20030;-83
2023/07/27 05:48:43;;;;;;;3.13;0.63;;;17.60;99.90;;;;;;5089188;28;20028;-82
2023/07/27 05:51:09;;;;;;;3.97;1.08;;;17.60;99.90;;;;;;5090117;28;20091;-82
2023/07/27 05:53:35;;;;;;;1.60;0.70;;;17.70;99.90;;;;;;5090558;28;20028;-81
2023/07/27 05:56:01;;;;;;;2.45;1.00;;;17.70;99.90;;;;;;5088996;28;20040;-83
2023/07/27 05:58:27;;;;;;;2.50;0.80;;;17.70;99.90;;;;;;5088353;28;20056;-83
2023/07/27 06:01:01;;;;;;;2.47;0.68;;;17.80;99.90;;;;;;5088671;28;20035;-82
2023/07/27 06:03:28;;;;;;;0.82;0.63;;;18.00;99.90;;;;;;5088873;28;20111;-82
2023/07/27 06:05:54;;;;;;;2.08;0.90;;;18.10;99.00;;;;;;5088525;28;20029;-82
2023/07/27 06:08:20;;;;;;;5.78;0.90;;;18.10;96.40;;;;;;5088794;28;20034;-82
2023/07/27 06:10:46;;;;;;;0.63;0.50;;;18.10;96.10;;;;;;5080380;28;20082;-83
2023/07/27 06:13:12;;;;;;;5.22;0.65;;;18.10;95.50;;;;;;5076324;28;20039;-83
2023/07/27 06:15:37;;;;;;;6.47;0.68;;;18.20;94.50;;;;;;5076454;28;20056;-82
2023/07/27 06:18:04;;;;;;;1.30;0.50;;;18.20;93.70;;;;;;5075089;28;20039;-82
2023/07/27 06:20:29;;;;;;;2.17;0.90;;;18.30;94.50;;;;;;5073604;28;20115;-83
2023/07/27 06:22:55;;;;;;;2.30;0.60;;;18.40;93.40;;;;;;5075077;28;20070;-82
2023/07/27 06:25:22;;;;;;;1.40;0.63;;;18.50;93.10;;;;;;5064979;28;20036;-82
2023/07/27 06:27:47;;;;;;;3.28;0.80;;;18.60;93.00;;;;;;5057005;28;20029;-82
2023/07/27 06:30:15;;;;;;;2.53;0.77;;;18.60;92.50;;;;;;5075995;28;20032;-82
2023/07/27 06:32:41;;;;;;;3.72;0.80;;;18.70;91.00;;;;;;5072525;28;20090;-83
2023/07/27 06:35:07;;;;;;;1.48;0.60;;;18.80;91.00;;;;;;5074787;28;20052;-83
2023/07/27 06:37:32;;;;;;;4.70;0.70;;;18.80;90.30;;;;;;5074804;28;20036;-81
2023/07/27 06:39:59;;;;;;;4.55;0.90;;;19.00;91.50;;;;;;5074307;28;20029;-83
2023/07/27 06:42:25;;;;;;;4.63;0.80;;;19.00;90.50;;;;;;5074658;28;20036;-81
2023/07/27 06:44:50;;;;;;;4.72;0.60;;;19.00;89.40;;;;;;5057840;28;20082;-81
2023/07/27 06:47:16;;;;;;;2.00;0.50;;;19.20;89.40;;;;;;5075279;28;20051;-83
2023/07/27 06:49:42;;;;;;;1.60;0.60;;;19.20;85.50;;;;;;5074628;28;20082;-82
2023/07/27 06:52:09;;;;;;;1.60;0.82;;;19.20;84.90;;;;;;5075364;28;20037;-81
2023/07/27 06:54:36;;;;;;;2.15;0.60;;;19.30;86.10;;;;;;5075430;28;20029;-82
2023/07/27 06:57:07;;;;;;;3.83;0.60;;;19.40;87.60;;;;;;5074398;28;20526;-81
2023/07/27 06:59:33;;;;;;;2.47;0.57;;;19.50;84.30;;;;;;5074395;28;20118;-83
2023/07/27 07:01:59;;;;;;;1.55;0.68;;;19.60;81.60;;;;;;5073972;28;20417;-82
2023/07/27 07:04:24;;;;;;;4.68;0.80;;;19.70;81.80;;;;;;5075684;28;20036;-80
2023/07/27 07:06:51;;;;;;;1.48;0.70;;;19.70;82.30;;;;;;5075823;28;20024;-82
2023/07/27 07:09:17;;;;;;;1.40;0.70;;;19.70;82.20;;;;;;5073821;28;20060;-81
2023/07/27 07:11:42;;;;;;;3.20;0.68;;;19.80;80.70;;;;;;5075131;28;20063;-83
2023/07/27 07:14:08;;;;;;;1.27;0.70;;;19.90;80.40;;;;;;5074011;28;20059;-82
2023/07/27 07:17:58;;;;;;;0.80;0.60;;;20.10;80.00;;;;;;5070971;28;20391;-80
2023/07/27 07:20:23;;;;;;;5.70;0.75;;;20.10;81.90;;;;;;5086630;28;20105;-80
2023/07/27 07:22:49;;;;;;;1.67;0.70;;;20.10;78.00;;;;;;5069491;28;20455;-79
2023/07/27 07:25:16;;;;;;;1.75;0.85;;;20.20;80.70;;;;;;5071204;28;20479;-79
2023/07/27 07:27:42;;;;;;;2.78;0.93;;;;;;;;;;5086598;28;20028;-80
2023/07/27 07:30:08;;;;;;;1.83;0.80;;;20.30;76.70;;;;;;5086190;28;20036;-80
2023/07/27 07:32:35;;;;;;;2.95;0.60;;;20.40;77.90;;;;;;5086298;28;20035;-80
2023/07/27 07:35:01;;;;;;;1.25;0.70;;;20.50;78.90;;;;;;5070861;28;20056;-80
2023/07/27 07:37:27;;;;;;;5.20;0.88;;;20.60;76.90;;;;;;5069128;28;20471;-80
2023/07/27 07:39:53;;;;;;;3.85;0.70;;;20.60;76.30;;;;;;5070727;28;20111;-80
2023/07/27 07:42:18;;;;;;;2.22;0.60;;;20.70;75.40;;;;;;5069418;28;20029;-80
2023/07/27 07:44:46;;;;;;;1.13;0.80;;;20.70;75.30;;;;;;5069081;28;20033;-80
2023/07/27 07:47:12;;;;;;;1.98;0.70;;;20.90;76.40;;;;;;5069325;28;20535;-79
2023/07/27 07:49:37;;;;;;;2.22;1.05;;;21.10;77.80;;;;;;5069302;28;20112;-81
2023/07/27 07:52:04;;;;;;;1.40;0.82;;;21.20;75.70;;;;;;5070185;28;20154;-80
2023/07/27 07:54:30;;;;;;;0.95;0.60;;;21.30;73.10;;;;;;5070507;28;20036;-80
2023/07/27 07:56:56;;;;;;;2.60;0.88;;;21.30;73.00;;;;;;5070328;28;20028;-80
2023/07/27 07:59:23;;;;;;;1.75;0.75;;;21.30;73.50;;;;;;5069158;28;20043;-80
2023/07/27 08:01:49;;;;;;;4.45;0.70;;;21.20;71.40;;;;;;5083454;28;20081;-79
2023/07/27 08:04:15;;;;;;;2.30;0.60;;;21.30;73.30;;;;;;5088888;28;20032;-80
2023/07/27 08:07:23;;;;;;;3.35;0.70;;;21.40;71.00;;;;;;5085016;28;20378;-80
2023/07/27 08:09:48;;;;;;;3.55;0.90;;;21.50;71.00;;;;;;5091426;28;20028;-81
2023/07/27 08:51:49;;;;;;;4.03;0.90;;;22.70;67.30;;;;;;5121024;27;20129;-83
2023/07/27 08:54:15;;;;;;;1.45;0.80;;;22.60;66.30;;;;;;5093028;28;20193;-82
2023/07/27 09:40:23;;;;;;;1.70;0.82;;;23.50;82.80;;;;;;5155556;27;20865;-83
2023/07/27 09:56:13;;;;;;;3.40;0.98;;;;;;;;;;5090962;27;20888;-80
2023/07/27 09:58:39;;;;;;;3.03;0.88;;;;;;;;;;5091322;28;20115;-80
2023/07/27 10:01:06;;;;;;;2.83;0.90;;;;;;;;;;5090981;28;20433;-81
2023/07/27 10:03:33;;;;;;;1.13;0.60;;;;;;;;;;5089618;28;20039;-82
2023/07/27 10:06:00;;;;;;;1.10;0.60;;;;;;;;;;5091004;28;20107;-80
2023/07/27 10:08:27;;;;;;;3.90;0.80;;;;;;;;;;5089940;28;20497;-80
2023/07/27 10:10:54;;;;;;;2.58;0.82;;;;;;;;;;5089396;28;20351;-82
2023/07/27 10:13:23;;;;;;;2.75;1.40;;;;;;;;;;5089711;28;20032;-79
2023/07/27 10:15:49;;;;;;;3.92;0.65;;;;;;;;;;5090950;28;20040;-81
2023/07/27 10:18:16;;;;;;;3.50;1.10;;;;;;;;;;5089336;28;20040;-80
2023/07/27 10:20:42;;;;;;;1.45;0.60;;;;;;;;;;5089542;28;20107;-80
2023/07/27 10:23:09;;;;;;;6.10;0.90;;;;;;;;;;5089610;28;20025;-80
2023/07/27 10:26:02;;;;;;;4.82;1.00;;;;;;;;;;5089250;28;20028;-81
2023/07/27 10:28:32;;;;;;;1.63;0.90;;;;;;;;;;5086001;28;20486;-79
2023/07/27 10:31:17;;;;;;;5.93;0.85;;;;;;;;;;5088479;28;20028;-79
2023/07/27 10:33:46;;;;;;;1.48;1.00;;;;;;;;;;5088882;28;20028;-80
2023/07/27 10:36:13;;;;;;;3.15;0.85;;;;;;;;;;5089280;28;20123;-80
2023/07/27 10:38:39;;;;;;;0.75;0.60;;;;;;;;;;5087104;28;20032;-80
2023/07/27 10:41:31;;;;;;;5.72;0.75;;;;;;;;;;5088730;28;20028;-80
2023/07/27 10:56:06;;;;;;;1.85;0.60;;;;;;;;;;5152823;27;20326;-81
2023/07/27 10:58:32;;;;;;;2.60;0.60;;;;;;;;;;5133382;27;20083;-81
2023/07/27 11:00:59;;;;;;;3.42;0.80;;;;;;;;;;5133365;27;20173;-85
2023/07/27 11:03:25;;;;;;;1.80;0.70;;;;;;;;;;5151689;27;20019;-80
2023/07/27 11:06:07;;;;;;;1.83;0.70;;;;;;;;;;5133179;27;20027;-81
2023/07/27 11:08:40;;;;;;;2.97;0.80;;;;;;;;;;5151848;27;20033;-82
2023/07/27 11:11:18;;;;;;;3.03;0.90;;;;;;;;;;5151990;27;20133;-82
2023/07/27 11:13:44;;;;;;;4.05;0.80;;;;;;;;;;5151424;27;20076;-81
2023/07/27 11:16:11;;;;;;;3.22;0.73;;;;;;;;;;5133258;27;20019;-81
2023/07/27 11:18:38;;;;;;;3.97;1.13;;;;;;;;;;5112861;28;20035;-80
2023/07/27 19:41:16;;;;;;;11.05;4.15;;;20.30;71.10;;;;;;5124929;27;20119;-81
2023/07/27 19:43:42;;;;;;;14.57;3.85;;;20.10;72.40;;;;;;5092584;28;20024;-81
2023/07/27 19:46:09;;;;;;;18.38;4.57;;;20.00;72.50;;;;;;5092385;28;20054;-83
2023/07/27 19:48:39;;;;;;;21.60;4.75;;;20.00;72.30;;;;;;5092471;28;20019;-81
2023/07/27 19:51:05;;;;;;;16.40;3.88;;;20.00;73.20;;;;;;5091868;28;20399;-83
2023/07/27 19:53:31;;;;;;;23.58;4.38;;;20.00;73.20;;;;;;5092109;28;20015;-82
2023/07/27 19:56:04;;;;;;;15.93;4.60;;;20.00;74.50;;;;;;5110395;28;20077;-83
2023/07/27 19:58:30;;;;;;;17.67;4.72;;;20.10;74.10;;;;;;5092733;28;20050;-82
2023/07/27 20:00:57;;;;;;;18.75;5.03;;;20.10;75.70;;;;;;5111015;28;20051;-81
2023/07/27 20:03:24;;;;;;;17.08;5.22;;;20.10;74.90;;;;;;5110968;28;20020;-82
2023/07/27 20:05:49;;;;;;;20.35;5.40;;;20.00;75.40;;;;;;5110722;28;20361;-81
2023/07/27 20:08:15;;;;;;;23.75;4.88;;;20.00;75.30;;;;;;5092961;28;20024;-83
2023/07/27 20:10:41;;;;;;;30.45;4.63;;;20.00;76.20;;;;;;5092714;28;20454;-82
2023/07/27 20:13:07;;;;;;;16.15;4.40;;;19.90;78.20;;;;;;5088113;28;20024;-81
2023/07/27 20:15:32;;;;;;;10.00;4.85;;;19.80;79.20;;;;;;5092613;28;20030;-81
2023/07/27 20:17:58;;;;;;;14.02;4.38;;;19.70;80.30;;;;;;5092648;28;20051;-81
2023/07/27 20:20:24;;;;;;;17.20;4.45;;;19.60;81.20;;;;;;5092163;28;20081;-80
2023/07/27 20:22:50;;;;;;;12.10;4.68;;;19.50;83.20;;;;;;5092556;28;20031;-80
2023/07/27 20:25:15;;;;;;;14.40;5.85;;;19.40;85.70;;;;;;5092491;28;20027;-80
2023/07/27 20:27:41;;;;;;;11.90;4.75;;;19.40;87.30;;;;;;5092106;28;20023;-80
2023/07/27 20:30:07;;;;;;;10.15;3.97;;;19.30;87.40;;;;;;5087797;28;20031;-82
2023/07/27 20:32:33;;;;;;;14.18;4.93;;;19.30;89.00;;;;;;5087783;28;20119;-82
2023/07/27 20:35:00;;;;;;;12.13;4.78;;;19.30;90.60;;;;;;5091712;28;20020;-82
2023/07/27 20:37:25;;;;;;;17.60;5.95;;;19.30;91.50;;;;;;5092149;28;20020;-80
2023/07/27 20:39:51;;;;;;;9.10;4.20;;;19.20;90.60;;;;;;5081879;28;20074;-82
2023/07/27 20:42:17;;;;;;;9.32;3.40;;;19.10;90.80;;;;;;5071826;28;20362;-81
2023/07/27 20:44:43;;;;;;;7.15;2.45;;;19.10;91.10;;;;;;5067311;28;20136;-80
2023/07/27 20:47:08;;;;;;;9.02;3.40;;;18.90;92.50;;;;;;5050050;28;20040;-81
2023/07/27 20:49:34;;;;;;;6.00;2.63;;;18.80;93.70;;;;;;5049433;28;20468;-80
2023/07/27 20:52:00;;;;;;;7.20;2.55;;;18.80;94.60;;;;;;5056907;28;20037;-80
2023/07/27 20:54:26;;;;;;;8.80;2.92;;;18.70;95.80;;;;;;5036773;28;20470;-81
2023/07/27 20:56:51;;;;;;;7.65;2.65;;;18.70;96.70;;;;;;5037156;28;20025;-81
2023/07/27 20:59:17;;;;;;;10.57;2.75;;;18.70;96.70;;;;;;5053898;28;20037;-81
2023/07/27 21:01:43;;;;;;;9.07;2.72;;;18.60;98.20;;;;;;5053535;28;20446;-80
2023/07/27 21:04:08;;;;;;;9.85;2.75;;;18.60;98.20;;;;;;5037134;28;20479;-81
2023/07/27 21:06:36;;;;;;;9.82;3.28;;;18.60;98.70;;;;;;5053743;28;20455;-81
2023/07/27 21:09:02;;;;;;;9.82;3.28;;;18.60;99.50;;;;;;5053367;28;20032;-81
2023/07/27 21:11:28;;;;;;;8.13;3.22;;;18.50;99.90;;;;;;5036875;28;20499;-82
2023/07/27 21:13:54;;;;;;;8.05;3.08;;;18.50;99.90;;;;;;5036797;28;20029;-83
2023/07/27 21:16:19;;;;;;;5.70;2.78;;;18.50;99.90;;;;;;5052442;28;20044;-80
2023/07/27 21:18:45;;;;;;;7.35;2.95;;;18.50;99.90;;;;;;5057898;28;20070;-81
2023/07/27 21:21:20;;;;;;;9.45;2.88;;;18.50;99.90;;;;;;5057921;28;20115;-82
2023/07/27 21:23:46;;;;;;;6.72;2.55;;;18.40;99.90;;;;;;5037704;28;20029;-83
2023/07/27 21:26:12;;;;;;;4.13;2.33;;;18.30;99.90;;;;;;5060360;28;20088;-80
2023/07/27 21:28:38;;;;;;;5.35;2.22;;;18.30;99.90;;;;;;5057220;28;20124;-80
2023/07/27 21:31:06;;;;;;;5.78;2.47;;;18.30;99.90;;;;;;5075452;28;20022;-80
2023/07/27 21:33:31;;;;;;;5.63;2.67;;;18.30;99.90;;;;;;5073811;28;20017;-82
2023/07/27 21:35:57;;;;;;;5.78;2.70;;;18.20;99.90;;;;;;5056966;28;20035;-80
2023/07/27 21:38:23;;;;;;;8.73;2.42;;;18.20;99.90;;;;;;5075664;28;21227;-80
2023/07/27 21:40:48;;;;;;;8.88;2.45;;;18.20;99.90;;;;;;5087897;28;20039;-80
2023/07/27 21:43:18;;;;;;;10.75;2.47;;;18.10;99.90;;;;;;5091900;28;20066;-79
2023/07/27 21:45:48;;;;;;;4.95;2.50;;;18.10;99.90;;;;;;5093499;28;20119;-83
2023/07/27 21:48:13;;;;;;;5.95;2.42;;;18.10;99.90;;;;;;5092182;28;20365;-82
2023/07/27 21:50:40;;;;;;;4.22;2.28;;;18.00;99.90;;;;;;5093356;28;20024;-81
2023/07/27 21:53:06;;;;;;;4.95;2.28;;;18.00;99.90;;;;;;5094139;28;20586;-80
2023/07/27 21:55:32;;;;;;;6.13;2.03;;;17.90;99.90;;;;;;5094861;28;20028;-82
2023/07/27 21:57:57;;;;;;;5.65;2.38;;;17.90;99.90;;;;;;5093455;28;20064;-81
2023/07/27 22:00:23;;;;;;;6.43;2.47;;;17.90;99.90;;;;;;5093525;28;20057;-80
2023/07/27 22:02:49;;;;;;;5.95;2.22;;;17.80;99.90;;;;;;5092439;28;20024;-82
2023/07/27 22:05:15;;;;;;;4.22;1.85;;;17.80;99.90;;;;;;5094502;28;20362;-81
2023/07/27 22:07:40;;;;;;;4.10;2.42;;;17.70;99.90;;;;;;5094920;28;20020;-81
2023/07/27 22:10:11;;;;;;;5.45;1.73;;;17.70;99.90;;;;;;5095300;28;20083;-82
2023/07/27 22:12:37;;;;;;;8.93;2.45;;;17.60;99.90;;;;;;5072389;28;20059;-82
2023/07/27 22:15:04;;;;;;;3.85;1.80;;;17.70;99.90;;;;;;5093240;28;20365;-83
2023/07/27 22:17:30;;;;;;;4.45;2.08;;;17.70;99.90;;;;;;5093462;28;20024;-82
2023/07/27 22:19:55;;;;;;;6.53;2.80;;;17.60;99.90;;;;;;5091395;28;20024;-81
2023/07/27 22:22:21;;;;;;;6.80;2.70;;;17.50;99.90;;;;;;5092921;28;20023;-82
2023/07/27 22:24:47;;;;;;;9.57;2.92;;;17.50;99.90;;;;;;5092722;28;20022;-80
2023/07/27 22:27:12;;;;;;;8.15;3.05;;;17.50;99.90;;;;;;5094503;28;20046;-80
2023/07/27 22:29:38;;;;;;;5.45;3.10;;;17.40;99.90;;;;;;5093507;28;20406;-79
2023/07/27 22:32:04;;;;;;;4.90;3.20;;;17.40;99.90;;;;;;5093235;28;20530;-79
2023/07/27 22:34:30;;;;;;;6.10;3.55;;;17.30;99.90;;;;;;5093649;28;20102;-78
2023/07/27 22:36:56;;;;;;;5.57;2.90;;;17.30;99.90;;;;;;5093575;28;20044;-80
2023/07/27 22:39:22;;;;;;;6.75;3.35;;;17.30;99.90;;;;;;5092855;28;20051;-79
2023/07/27 22:41:48;;;;;;;6.07;3.03;;;17.30;99.90;;;;;;5094326;28;20042;-78
2023/07/27 22:44:14;;;;;;;4.85;2.95;;;17.30;99.90;;;;;;5093452;28;20032;-79
2023/07/27 22:46:40;;;;;;;6.53;3.03;;;17.30;99.90;;;;;;5093019;28;20023;-80
2023/07/27 22:49:06;;;;;;;5.20;2.70;;;17.30;99.90;;;;;;5093358;28;20358;-79
2023/07/27 22:51:33;;;;;;;3.90;2.45;;;17.30;99.90;;;;;;5094493;28;20035;-80
2023/07/27 22:53:58;;;;;;;6.80;2.63;;;17.20;99.90;;;;;;5093638;28;20023;-79
2023/07/27 22:56:24;;;;;;;5.13;2.60;;;17.20;99.90;;;;;;5092807;28;20024;-80
2023/07/27 22:58:50;;;;;;;5.25;2.47;;;17.20;99.90;;;;;;5092800;28;20027;-79
2023/07/27 23:01:16;;;;;;;6.13;2.67;;;17.20;99.90;;;;;;5092409;28;20359;-79
2023/07/27 23:03:42;;;;;;;4.90;2.65;;;17.10;99.90;;;;;;5092062;28;20454;-79
2023/07/27 23:06:08;;;;;;;6.72;3.30;;;17.10;99.90;;;;;;5093681;28;20026;-79
2023/07/27 23:08:34;;;;;;;6.35;3.17;;;17.10;99.90;;;;;;5093442;28;20107;-81
2023/07/27 23:11:00;;;;;;;4.55;2.63;;;17.00;99.90;;;;;;5089282;28;20405;-79
2023/07/27 23:13:27;;;;;;;7.70;2.75;;;17.10;99.90;;;;;;5091965;28;20375;-79